Time;durP1;ratioP1;P1;durP2;ratioP2;P2;SDS_P1;SDS_P2;PMS_P1;PMS_P2;Temp;Humidity;BMP_temperature;BMP_pressure;BME280_temperature;BME280_humidity;BME280_pressure;Samples;Min_cycle;Max_cycle;Signal;HPM_P1;HPM_P2
2021/06/04 00:02:15;;;;;;;19.43;17.63;;;;;;;;;;5113926;28;20770;-71
2021/06/04 00:04:42;;;;;;;18.23;16.43;;;;;;;;;;5113591;28;20932;-72
2021/06/04 00:07:08;;;;;;;20.20;18.40;;;;;;;;;;5114224;28;20464;-72
2021/06/04 00:09:35;;;;;;;20.47;18.57;;;;;;;;;;5113758;28;20483;-71
2021/06/04 00:12:02;;;;;;;18.80;17.10;;;;;;;;;;5113922;28;20449;-72
2021/06/04 00:14:30;;;;;;;20.13;18.07;;;;;;;;;;5113767;28;20475;-72
2021/06/04 00:16:59;;;;;;;19.83;18.00;;;;;;;;;;5113911;28;20796;-71
2021/06/04 00:19:28;;;;;;;20.03;18.00;;;;;;;;;;5113350;28;20443;-71
2021/06/04 00:21:56;;;;;;;19.57;17.77;;;;;;;;;;5114048;28;20443;-71
2021/06/04 00:24:24;;;;;;;20.57;18.63;;;;;;;;;;5113402;28;20454;-71
2021/06/04 00:26:52;;;;;;;19.87;18.03;;;;;;;;;;5113410;28;20466;-71
2021/06/04 00:29:19;;;;;;;19.90;18.23;;;;;;;;;;5117205;28;20433;-72
2021/06/04 00:31:46;;;;;;;18.97;17.23;;;;;;;;;;5117568;28;20434;-72
2021/06/04 00:34:14;;;;;;;28.17;25.17;;;;;;;;;;5117494;28;20430;-71
2021/06/04 00:36:41;;;;;;;23.30;20.80;;;;;;;;;;5117847;28;20445;-72
2021/06/04 00:39:08;;;;;;;28.07;25.60;;;;;;;;;;5117405;28;20434;-72
2021/06/04 00:41:38;;;;;;;28.13;25.40;;;;;;;;;;5117983;28;20494;-72
2021/06/04 00:44:05;;;;;;;26.87;23.67;;;;;;;;;;5117515;28;20443;-72
2021/06/04 00:46:32;;;;;;;26.00;23.40;;;;;;;;;;5116957;28;20454;-71
2021/06/04 00:48:59;;;;;;;24.57;22.27;;;;;;;;;;5117323;28;20796;-72
2021/06/04 00:51:30;;;;;;;24.37;22.17;;;;;;;;;;5117602;28;20478;-72
2021/06/04 00:53:57;;;;;;;23.60;21.13;;;;;;;;;;5117710;28;20435;-72
2021/06/04 00:56:26;;;;;;;23.10;20.83;;;;;;;;;;5117157;28;20815;-72
2021/06/04 00:58:52;;;;;;;24.40;22.10;;;;;;;;;;5117047;28;20449;-71
2021/06/04 01:01:21;;;;;;;23.90;21.40;;;;;;;;;;5116708;28;21034;-72
2021/06/04 01:03:49;;;;;;;23.43;20.93;;;;;;;;;;5116603;28;20923;-72
2021/06/04 01:06:20;;;;;;;26.27;23.03;;;;;;;;;;5116877;28;20445;-72
2021/06/04 01:08:54;;;;;;;23.57;21.17;;;;;;;;;;5117023;28;20427;-71
2021/06/04 01:11:25;;;;;;;24.20;21.80;;;;;;;;;;5117076;28;20475;-71
2021/06/04 01:13:58;;;;;;;22.83;20.53;;;;;;;;;;5116805;28;20787;-71
2021/06/04 01:16:27;;;;;;;23.43;21.20;;;;;;;;;;5116411;28;20432;-71
2021/06/04 01:19:01;;;;;;;22.80;20.47;;;;;;;;;;5116644;28;20491;-71
2021/06/04 01:21:34;;;;;;;23.93;21.50;;;;;;;;;;5116460;28;20928;-71
2021/06/04 01:24:08;;;;;;;26.20;23.60;;;;;;;;;;5116982;28;20427;-71
2021/06/04 01:26:38;;;;;;;26.43;23.93;;;;;;;;;;5117047;28;20486;-71
2021/06/04 01:29:06;;;;;;;27.27;24.43;;;;;;;;;;5116226;28;20407;-71
2021/06/04 01:31:35;;;;;;;26.20;23.57;;;;;;;;;;5116318;28;20486;-71
2021/06/04 01:34:04;;;;;;;23.03;21.03;;;;;;;;;;5116010;28;20523;-72
2021/06/04 01:36:33;;;;;;;23.63;21.40;;;;;;;;;;5115859;28;20940;-71
2021/06/04 01:39:01;;;;;;;23.60;21.27;;;;;;;;;;5115442;28;20480;-71
2021/06/04 01:41:29;;;;;;;26.97;24.33;;;;;;;;;;5115873;28;20442;-71
2021/06/04 01:44:00;;;;;;;25.63;22.93;;;;;;;;;;5116208;28;20538;-71
2021/06/04 01:46:34;;;;;;;25.00;22.80;;;;;;;;;;5115965;28;20980;-71
2021/06/04 01:49:03;;;;;;;25.27;22.77;;;;;;;;;;5115808;28;20908;-71
2021/06/04 01:51:31;;;;;;;22.23;20.13;;;;;;;;;;5115577;28;20503;-71
2021/06/04 01:54:02;;;;;;;24.53;22.10;;;;;;;;;;5116031;28;20439;-72
2021/06/04 01:56:31;;;;;;;22.43;20.43;;;;;;;;;;5117980;28;20576;-72
2021/06/04 01:59:00;;;;;;;26.00;23.47;;;;;;;;;;5115842;28;20442;-71
2021/06/04 02:01:30;;;;;;;24.60;22.20;;;;;;;;;;5116810;28;20483;-71
2021/06/04 02:03:58;;;;;;;25.97;23.57;;;;;;;;;;5116402;28;20492;-71
2021/06/04 02:06:25;;;;;;;25.33;22.80;;;;;;;;;;5115679;28;20947;-71
2021/06/04 02:08:54;;;;;;;23.30;21.07;;;;;;;;;;5115631;28;20538;-72
2021/06/04 02:11:22;;;;;;;25.17;22.83;;;;;;;;;;5115324;28;20540;-71
2021/06/04 02:13:49;;;;;;;21.13;19.33;;;;;;;;;;5115585;28;20434;-71
2021/06/04 02:16:34;;;;;;;23.50;21.30;;;;;;;;;;5115752;28;20435;-71
2021/06/04 02:19:06;;;;;;;24.17;21.97;;;;;;;;;;5115220;28;20447;-71
2021/06/04 02:21:34;;;;;;;22.37;20.37;;;;;;;;;;5115726;28;20438;-71
2021/06/04 02:24:04;;;;;;;24.93;22.43;;;;;;;;;;5115489;28;20438;-71
2021/06/04 02:26:33;;;;;;;23.47;21.27;;;;;;;;;;5115363;28;20977;-73
2021/06/04 02:29:02;;;;;;;25.33;22.77;;;;;;;;;;5115036;28;20436;-72
2021/06/04 02:31:32;;;;;;;24.33;21.80;;;;;;;;;;5115453;28;20483;-71
2021/06/04 02:34:03;;;;;;;24.10;21.80;;;;;;;;;;5115260;28;20447;-71
2021/06/04 02:36:33;;;;;;;24.83;22.53;;;;;;;;;;5115992;28;20420;-72
2021/06/04 02:39:01;;;;;;;24.80;22.40;;;;;;;;;;5115599;28;20447;-72
2021/06/04 02:41:29;;;;;;;25.83;23.50;;;;;;;;;;5115214;28;20530;-73
2021/06/04 02:43:58;;;;;;;25.80;23.27;;;;;;;;;;5115894;28;20981;-72
2021/06/04 02:46:27;;;;;;;24.60;22.20;;;;;;;;;;5116325;28;20458;-72
2021/06/04 02:48:54;;;;;;;25.90;23.30;;;;;;;;;;5114859;28;20443;-72
2021/06/04 02:51:27;;;;;;;25.97;23.37;;;;;;;;;;5113987;28;20481;-71
2021/06/04 02:53:56;;;;;;;25.87;23.20;;;;;;;;;;5115184;28;20487;-72
2021/06/04 02:56:25;;;;;;;26.13;23.70;;;;;;;;;;5114502;28;20534;-72
2021/06/04 02:58:53;;;;;;;27.27;24.57;;;;;;;;;;5115002;28;20441;-72
2021/06/04 03:01:20;;;;;;;27.40;24.70;;;;;;;;;;5114591;28;20440;-72
2021/06/04 03:03:50;;;;;;;26.77;24.17;;;;;;;;;;5115862;28;20445;-74
2021/06/04 03:06:17;;;;;;;27.00;24.40;;;;;;;;;;5117859;28;20571;-72
2021/06/04 03:08:45;;;;;;;25.73;23.33;;;;;;;;;;5117945;28;20512;-72
2021/06/04 03:11:14;;;;;;;25.73;23.43;;;;;;;;;;5118248;28;20475;-72
2021/06/04 03:13:41;;;;;;;23.43;21.30;;;;;;;;;;5119359;28;20950;-72
2021/06/04 03:16:11;;;;;;;24.27;22.07;;;;;;;;;;5119009;28;20435;-72
2021/06/04 03:18:39;;;;;;;27.93;24.73;;;;;;;;;;5119108;28;20427;-72
2021/06/04 03:21:08;;;;;;;25.63;23.20;;;;;;;;;;5121419;28;20439;-72
2021/06/04 03:23:37;;;;;;;28.13;25.43;;;;;;;;;;5121522;28;20438;-71
2021/06/04 03:26:06;;;;;;;24.00;21.70;;;;;;;;;;5122238;28;20466;-70
2021/06/04 03:28:35;;;;;;;25.40;22.37;;;;;;;;;;5122011;28;20426;-71
2021/06/04 03:31:02;;;;;;;24.10;21.63;;;;;;;;;;5119127;28;20504;-71
2021/06/04 03:33:32;;;;;;;24.23;21.33;;;;;;;;;;5120333;28;20463;-71
2021/06/04 03:35:59;;;;;;;26.63;24.00;;;;;;;;;;5120392;28;20475;-71
2021/06/04 03:38:26;;;;;;;27.03;24.50;;;;;;;;;;5120723;28;20447;-71
2021/06/04 03:40:53;;;;;;;25.57;23.30;;;;;;;;;;5121792;28;20442;-72
2021/06/04 03:43:21;;;;;;;26.77;24.17;;;;;;;;;;5121074;28;20530;-72
2021/06/04 03:45:49;;;;;;;27.57;24.67;;;;;;;;;;5118079;28;20529;-72
2021/06/04 03:48:18;;;;;;;25.47;23.07;;;;;;;;;;5119924;28;20525;-72
2021/06/04 03:50:45;;;;;;;24.47;21.97;;;;;;;;;;5121966;28;20531;-73
2021/06/04 03:53:11;;;;;;;26.07;23.77;;;;;;;;;;5119712;28;20441;-72
2021/06/04 03:55:40;;;;;;;27.27;24.50;;;;;;;;;;5119702;28;20439;-73
2021/06/04 03:58:07;;;;;;;27.47;24.73;;;;;;;;;;5118137;28;20447;-72
2021/06/04 04:00:35;;;;;;;26.27;23.73;;;;;;;;;;5117206;28;20451;-72
2021/06/04 04:03:03;;;;;;;29.70;26.77;;;;;;;;;;5121142;28;20469;-73
2021/06/04 04:05:31;;;;;;;27.63;25.07;;;;;;;;;;5122087;28;20496;-72
2021/06/04 04:07:58;;;;;;;28.93;26.10;;;;;;;;;;5120980;28;20438;-73
2021/06/04 04:10:25;;;;;;;26.50;23.80;;;;;;;;;;5121333;28;20553;-71
2021/06/04 04:12:53;;;;;;;29.50;26.40;;;;;;;;;;5120933;28;20522;-71
2021/06/04 04:15:21;;;;;;;28.67;25.47;;;;;;;;;;5119727;28;20539;-72
2021/06/04 04:17:48;;;;;;;28.90;26.30;;;;;;;;;;5119695;28;20439;-72
2021/06/04 04:20:18;;;;;;;27.70;24.93;;;;;;;;;;5117628;28;20439;-75
2021/06/04 04:22:45;;;;;;;26.03;23.43;;;;;;;;;;5117571;28;20446;-71
2021/06/04 04:25:13;;;;;;;30.03;27.13;;;;;;;;;;5123851;27;20442;-71
2021/06/04 04:27:39;;;;;;;29.30;26.23;;;;;;;;;;5130368;27;20470;-71
2021/06/04 04:30:08;;;;;;;29.80;27.10;;;;;;;;;;5138255;27;20533;-70
2021/06/04 04:32:37;;;;;;;33.07;29.87;;;;;;;;;;5137803;27;20446;-71
2021/06/04 04:35:04;;;;;;;31.00;28.00;;;;;;;;;;5137696;27;20521;-70
2021/06/04 04:37:32;;;;;;;29.93;26.93;;;;;;;;;;5138008;27;20441;-71
2021/06/04 04:39:59;;;;;;;29.20;26.53;;;;;;;;;;5137814;27;20433;-70
2021/06/04 04:42:26;;;;;;;27.80;25.00;;;;;;;;;;5137794;27;20442;-70
2021/06/04 04:44:53;;;;;;;28.10;25.10;;;;;;;;;;5138864;27;20442;-71
2021/06/04 04:47:21;;;;;;;30.17;25.90;;;;;;;;;;5138759;27;20441;-71
2021/06/04 04:49:47;;;;;;;30.13;27.33;;;;;;;;;;5137985;27;20430;-71
2021/06/04 04:52:15;;;;;;;30.83;27.20;;;;;;;;;;5137423;27;20438;-70
2021/06/04 04:54:48;;;;;;;32.03;27.73;;;;;;;;;;5131712;27;20526;-70
2021/06/04 04:57:15;;;;;;;36.77;28.10;;;;;;;;;;5116766;28;20562;-70
2021/06/04 04:59:42;;;;;;;34.90;31.10;;;;;;;;;;5117094;28;20435;-70
2021/06/04 05:02:10;;;;;;;40.03;30.50;;;;;;;;;;5116873;28;21003;-70
2021/06/04 05:04:37;;;;;;;35.27;31.30;;;;;;;;;;5116411;28;20528;-70
2021/06/04 05:07:04;;;;;;;32.67;29.23;;;;;;;;;;5117012;28;20447;-70
2021/06/04 05:09:31;;;;;;;32.57;29.27;;;;;;;;;;5116850;28;20435;-71
2021/06/04 05:11:59;;;;;;;32.30;29.00;;;;;;;;;;5116366;28;20486;-71
2021/06/04 05:14:26;;;;;;;35.67;31.70;;;;;;;;;;5115896;28;20943;-71
2021/06/04 05:16:52;;;;;;;33.33;29.97;;;;;;;;;;5116760;28;20449;-71
2021/06/04 05:19:19;;;;;;;30.20;27.30;;;;;;;;;;5116719;28;20435;-71
2021/06/04 05:21:46;;;;;;;30.87;27.47;;;;;;;;;;5116871;28;20530;-71
2021/06/04 05:24:13;;;;;;;31.73;28.63;;;;;;;;;;5116223;28;20447;-70
2021/06/04 05:26:40;;;;;;;28.90;26.03;;;;;;;;;;5116339;28;20510;-71
2021/06/04 05:29:08;;;;;;;29.80;26.90;;;;;;;;;;5116383;28;20516;-71
2021/06/04 05:31:38;;;;;;;32.13;28.73;;;;;;;;;;5116262;28;20497;-71
2021/06/04 05:34:05;;;;;;;32.73;29.30;;;;;;;;;;5116026;28;20959;-71
2021/06/04 05:36:33;;;;;;;35.10;31.70;;;;;;;;;;5116171;28;20430;-71
2021/06/04 05:39:00;;;;;;;32.13;28.63;;;;;;;;;;5116259;28;20442;-71
2021/06/04 05:41:27;;;;;;;29.17;26.40;;;;;;;;;;5116553;28;20526;-71
2021/06/04 05:43:53;;;;;;;33.00;29.50;;;;;;;;;;5115802;28;20440;-72
2021/06/04 05:46:22;;;;;;;33.83;30.27;;;;;;;;;;5116042;28;20435;-72
2021/06/04 05:48:49;;;;;;;33.40;30.03;;;;;;;;;;5115655;28;21012;-71
2021/06/04 05:51:18;;;;;;;32.83;29.30;;;;;;;;;;5115892;28;20479;-71
2021/06/04 05:53:44;;;;;;;34.80;31.27;;;;;;;;;;5115958;28;20522;-72
2021/06/04 05:56:12;;;;;;;36.23;32.37;;;;;;;;;;5115458;28;20445;-71
2021/06/04 05:58:39;;;;;;;34.50;30.83;;;;;;;;;;5115537;28;20475;-72
2021/06/04 06:01:07;;;;;;;39.97;35.70;;;;;;;;;;5115808;28;20979;-72
2021/06/04 06:03:37;;;;;;;39.37;35.37;;;;;;;;;;5115733;28;20446;-72
2021/06/04 06:06:04;;;;;;;41.30;37.27;;;;;;;;;;5116298;28;20425;-72
2021/06/04 06:08:31;;;;;;;41.57;37.17;;;;;;;;;;5115850;28;20448;-72
2021/06/04 06:10:58;;;;;;;38.63;34.73;;;;;;;;;;5115603;28;20926;-72
2021/06/04 06:13:26;;;;;;;40.17;35.17;;;;;;;;;;5115591;28;20534;-71
2021/06/04 06:15:53;;;;;;;40.70;36.50;;;;;;;;;;5115540;28;20442;-71
2021/06/04 06:18:20;;;;;;;38.40;34.50;;;;;;;;;;5115482;28;20440;-72
2021/06/04 06:20:48;;;;;;;39.73;35.63;;;;;;;;;;5115371;28;20440;-71
2021/06/04 06:23:16;;;;;;;41.00;36.80;;;;;;;;;;5115347;28;20453;-71
2021/06/04 06:25:44;;;;;;;40.23;35.97;;;;;;;;;;5115125;28;20531;-70
2021/06/04 06:28:12;;;;;;;40.67;36.47;;;;;;;;;;5115321;28;20469;-72
2021/06/04 06:30:39;;;;;;;40.90;36.43;;;;;;;;;;5115255;28;20956;-71
2021/06/04 06:33:06;;;;;;;40.23;36.23;;;;;;;;;;5115153;28;20847;-71
2021/06/04 06:35:35;;;;;;;46.50;38.17;;;;;;;;;;5115703;28;20436;-71
2021/06/04 06:38:03;;;;;;;41.27;37.07;;;;;;;;;;5115354;28;20565;-71
2021/06/04 06:40:30;;;;;;;42.47;38.37;;;;;;;;;;5114933;28;20439;-72
2021/06/04 06:42:57;;;;;;;39.50;35.60;;;;;;;;;;5115332;28;20437;-72
2021/06/04 06:45:25;;;;;;;43.97;39.40;;;;;;;;;;5114796;28;20936;-71
2021/06/04 06:47:53;;;;;;;42.60;37.77;;;;;;;;;;5114904;28;20438;-72
2021/06/04 06:50:20;;;;;;;41.73;37.57;;;;;;;;;;5114485;28;20477;-70
2021/06/04 06:52:46;;;;;;;41.93;37.83;;;;;;;;;;5114430;28;20440;-71
2021/06/04 06:55:15;;;;;;;44.33;40.10;;;;;;;;;;5114521;28;20443;-70
2021/06/04 06:57:41;;;;;;;43.07;38.47;;;;;;;;;;5114642;28;20445;-72
2021/06/04 07:00:09;;;;;;;42.13;37.33;;;;;;;;;;5114675;28;20437;-71
2021/06/04 07:02:36;;;;;;;42.77;38.33;;;;;;;;;;5114538;28;20440;-72
2021/06/04 07:05:03;;;;;;;43.37;38.60;;;;;;;;;;5114544;28;20459;-71
2021/06/04 07:07:30;;;;;;;43.83;39.57;;;;;;;;;;5114088;28;20448;-71
2021/06/04 07:09:56;;;;;;;43.03;38.73;;;;;;;;;;5113884;28;20526;-72
2021/06/04 07:12:24;;;;;;;43.57;38.97;;;;;;;;;;5114359;28;20463;-71
2021/06/04 07:14:52;;;;;;;47.53;40.50;;;;;;;;;;5113990;28;20456;-72
2021/06/04 07:17:18;;;;;;;45.70;41.07;;;;;;;;;;5114283;28;20461;-71
2021/06/04 07:19:46;;;;;;;44.67;39.97;;;;;;;;;;5114296;28;20439;-72
2021/06/04 07:22:13;;;;;;;48.10;43.10;;;;;;;;;;5113929;28;20455;-71
2021/06/04 07:24:39;;;;;;;46.87;42.40;;;;;;;;;;5114365;28;20436;-72
2021/06/04 07:27:06;;;;;;;45.80;41.20;;;;;;;;;;5114006;28;20468;-72
2021/06/04 07:29:34;;;;;;;42.77;38.43;;;;;;;;;;5114189;28;20444;-70
2021/06/04 07:32:02;;;;;;;43.53;39.17;;;;;;;;;;5113791;28;20479;-72
2021/06/04 07:34:29;;;;;;;42.80;38.57;;;;;;;;;;5113821;28;20503;-72
2021/06/04 07:36:57;;;;;;;41.93;37.57;;;;;;;;;;5113458;28;20447;-72
2021/06/04 07:39:26;;;;;;;38.73;34.97;;;;;;;;;;5113721;28;20433;-71
2021/06/04 07:41:52;;;;;;;40.47;36.27;;;;;;;;;;5113724;28;20524;-71
2021/06/04 07:44:20;;;;;;;40.50;36.40;;;;;;;;;;5113666;28;20931;-71
2021/06/04 07:46:50;;;;;;;40.13;36.10;;;;;;;;;;5113930;28;20519;-71
2021/06/04 07:49:17;;;;;;;36.50;32.23;;;;;;;;;;5114597;28;20415;-70
2021/06/04 07:51:46;;;;;;;39.63;35.47;;;;;;;;;;5113504;28;20487;-71
2021/06/04 07:54:14;;;;;;;39.47;35.07;;;;;;;;;;5113403;28;20439;-72
2021/06/04 07:56:40;;;;;;;38.80;34.70;;;;;;;;;;5113827;28;20802;-71
2021/06/04 07:59:07;;;;;;;40.90;37.00;;;;;;;;;;5113509;28;20435;-71
2021/06/04 08:01:34;;;;;;;38.77;34.70;;;;;;;;;;5113885;28;20435;-71
2021/06/04 08:04:09;;;;;;;41.57;37.17;;;;;;;;;;5113552;28;20445;-71
2021/06/04 08:06:36;;;;;;;38.70;34.77;;;;;;;;;;5113820;28;20557;-72
2021/06/04 08:09:04;;;;;;;39.87;35.57;;;;;;;;;;5113930;28;20449;-71
2021/06/04 08:11:34;;;;;;;36.97;33.27;;;;;;;;;;5113928;28;20519;-71
2021/06/04 08:14:02;;;;;;;39.07;32.73;;;;;;;;;;5113447;28;20478;-71
2021/06/04 08:16:29;;;;;;;38.90;33.37;;;;;;;;;;5113741;28;20483;-71
2021/06/04 08:18:56;;;;;;;35.80;32.10;;;;;;;;;;5114097;28;20438;-71
2021/06/04 08:21:26;;;;;;;39.33;30.47;;;;;;;;;;5113306;28;20942;-71
2021/06/04 08:23:53;;;;;;;34.87;31.37;;;;;;;;;;5113664;28;20427;-71
2021/06/04 08:26:21;;;;;;;37.97;34.20;;;;;;;;;;5113887;28;20470;-70
2021/06/04 08:28:48;;;;;;;34.73;31.10;;;;;;;;;;5113800;28;20433;-71
2021/06/04 08:31:15;;;;;;;35.80;31.90;;;;;;;;;;5113531;28;20485;-72
2021/06/04 08:33:43;;;;;;;36.33;32.90;;;;;;;;;;5113632;28;20443;-69
2021/06/04 08:36:11;;;;;;;36.20;32.50;;;;;;;;;;5114007;28;20441;-72
2021/06/04 08:38:41;;;;;;;34.93;31.63;;;;;;;;;;5113011;28;20811;-72
2021/06/04 08:41:12;;;;;;;36.40;32.77;;;;;;;;;;5113491;28;20443;-72
2021/06/04 08:43:50;;;;;;;35.67;32.20;;;;;;;;;;5113542;28;20427;-73
2021/06/04 08:46:20;;;;;;;35.13;31.43;;;;;;;;;;5113600;28;20450;-71
2021/06/04 08:48:49;;;;;;;36.30;32.70;;;;;;;;;;5114351;28;20437;-72
2021/06/04 08:51:21;;;;;;;38.80;32.07;;;;;;;;;;5117100;28;20479;-72
2021/06/04 08:53:55;;;;;;;37.43;33.77;;;;;;;;;;5117506;28;20460;-71
2021/06/04 08:56:24;;;;;;;34.70;31.20;;;;;;;;;;5117333;28;20488;-72
2021/06/04 08:58:55;;;;;;;36.30;32.80;;;;;;;;;;5116969;28;20491;-72
2021/06/04 09:01:25;;;;;;;37.13;33.33;;;;;;;;;;5117038;28;20828;-72
2021/06/04 09:03:53;;;;;;;38.03;34.30;;;;;;;;;;5116865;28;20521;-72
2021/06/04 09:06:26;;;;;;;37.20;33.50;;;;;;;;;;5116420;28;20445;-72
2021/06/04 09:08:54;;;;;;;37.13;33.43;;;;;;;;;;5117396;28;20509;-72
2021/06/04 09:11:23;;;;;;;36.93;33.23;;;;;;;;;;5116656;28;20477;-72
2021/06/04 09:13:50;;;;;;;36.17;32.60;;;;;;;;;;5116368;28;20441;-72
2021/06/04 09:16:24;;;;;;;33.83;30.40;;;;;;;;;;5116859;28;20521;-71
2021/06/04 09:18:54;;;;;;;36.87;33.27;;;;;;;;;;5116734;28;20845;-72
2021/06/04 09:21:23;;;;;;;35.33;31.70;;;;;;;;;;5116244;28;20430;-72
2021/06/04 09:23:51;;;;;;;34.37;30.80;;;;;;;;;;5116131;28;20935;-72
2021/06/04 09:26:22;;;;;;;36.63;32.70;;;;;;;;;;5115984;28;20474;-71
2021/06/04 09:28:51;;;;;;;36.50;32.80;;;;;;;;;;5116672;28;20506;-71
2021/06/04 09:31:27;;;;;;;35.33;31.73;;;;;;;;;;5116451;28;20531;-71
2021/06/04 09:33:55;;;;;;;32.97;29.60;;;;;;;;;;5116029;28;20418;-72
2021/06/04 09:36:25;;;;;;;38.20;31.97;;;;;;;;;;5116206;28;20445;-71
2021/06/04 09:38:54;;;;;;;34.43;31.27;;;;;;;;;;5116157;28;20435;-72
2021/06/04 09:41:30;;;;;;;33.70;30.10;;;;;;;;;;5116168;28;20442;-72
2021/06/04 09:44:05;;;;;;;32.70;29.33;;;;;;;;;;5116218;28;20517;-71
2021/06/04 09:46:33;;;;;;;33.87;30.40;;;;;;;;;;5115982;28;20799;-72
2021/06/04 09:49:01;;;;;;;32.93;29.67;;;;;;;;;;5116279;28;20435;-71
2021/06/04 09:51:29;;;;;;;33.37;30.03;;;;;;;;;;5115481;28;20569;-72
2021/06/04 09:53:56;;;;;;;33.00;29.67;;;;;;;;;;5115903;28;20785;-72
2021/06/04 09:56:29;;;;;;;38.30;30.93;;;;;;;;;;5115898;28;20440;-72
2021/06/04 09:58:57;;;;;;;32.40;29.03;;;;;;;;;;5115858;28;20443;-72
2021/06/04 10:01:26;;;;;;;31.87;28.73;;;;;;;;;;5115041;28;20455;-72
2021/06/04 10:03:55;;;;;;;36.57;32.80;;;;;;;;;;5115728;28;20530;-72
2021/06/04 10:06:25;;;;;;;33.10;29.57;;;;;;;;;;5115596;28;20502;-72
2021/06/04 10:08:53;;;;;;;33.73;30.13;;;;;;;;;;5115288;28;20446;-73
2021/06/04 10:11:22;;;;;;;35.80;30.47;;;;;;;;;;5115094;28;20506;-72
2021/06/04 10:13:53;;;;;;;30.83;26.27;;;;;;;;;;5115762;28;20500;-72
2021/06/04 10:17:14;;;;;;;29.57;26.57;;;;;;;;;;5115324;28;20932;-72
2021/06/04 10:19:42;;;;;;;31.77;27.90;;;;;;;;;;5112870;28;20461;-72
2021/06/04 10:22:18;;;;;;;29.90;27.03;;;;;;;;;;5115307;28;20480;-72
2021/06/04 10:24:46;;;;;;;31.23;28.03;;;;;;;;;;5114964;28;20799;-71
2021/06/04 10:27:15;;;;;;;28.70;26.07;;;;;;;;;;5114814;28;20462;-72
2021/06/04 10:29:55;;;;;;;28.10;25.30;;;;;;;;;;5114919;28;20435;-72
2021/06/04 10:32:23;;;;;;;27.37;24.80;;;;;;;;;;5115283;28;20462;-72
2021/06/04 10:34:53;;;;;;;28.63;25.63;;;;;;;;;;5115177;28;20789;-72
2021/06/04 10:37:23;;;;;;;26.50;23.93;;;;;;;;;;5115553;28;20435;-72
2021/06/04 10:39:52;;;;;;;22.93;20.67;;;;;;;;;;5115421;28;20914;-72
2021/06/04 10:42:24;;;;;;;24.27;21.90;;;;;;;;;;5115019;28;20443;-72
2021/06/04 10:44:58;;;;;;;26.77;24.07;;;;;;;;;;5114778;28;20515;-72
2021/06/04 10:47:28;;;;;;;26.27;23.67;;;;;;;;;;5115258;28;20502;-71
2021/06/04 10:50:03;;;;;;;29.53;26.00;;;;;;;;;;5115162;28;20434;-72
2021/06/04 10:52:33;;;;;;;26.50;24.17;;;;;;;;;;5114925;28;20467;-71
2021/06/04 10:55:05;;;;;;;25.40;22.90;;;;;;;;;;5114525;28;20433;-73
2021/06/04 10:57:36;;;;;;;31.17;23.90;;;;;;;;;;5114847;28;20438;-73
2021/06/04 11:00:08;;;;;;;27.07;24.50;;;;;;;;;;5114474;28;20916;-72
2021/06/04 11:02:37;;;;;;;27.63;24.70;;;;;;;;;;5114406;28;20986;-75
2021/06/04 11:05:12;;;;;;;26.50;24.00;;;;;;;;;;5114676;28;20437;-74
2021/06/04 11:07:44;;;;;;;26.57;23.90;;;;;;;;;;5114353;28;20545;-72
2021/06/04 11:10:17;;;;;;;29.70;26.50;;;;;;;;;;5114692;28;20432;-73
2021/06/04 11:12:58;;;;;;;27.03;24.17;;;;;;;;;;5114131;28;20548;-73
2021/06/04 11:15:29;;;;;;;26.00;23.37;;;;;;;;;;5112215;28;20986;-73
2021/06/04 11:17:59;;;;;;;24.30;21.90;;;;;;;;;;5114053;28;20436;-73
2021/06/04 11:20:28;;;;;;;26.00;23.23;;;;;;;;;;5114574;28;20473;-73
2021/06/04 11:22:59;;;;;;;27.17;23.13;;;;;;;;;;5114300;28;20476;-73
2021/06/04 11:25:31;;;;;;;22.57;20.37;;;;;;;;;;5114472;28;20528;-73
2021/06/04 11:28:06;;;;;;;28.23;25.33;;;;;;;;;;5114379;28;20558;-73
2021/06/04 11:30:34;;;;;;;29.30;25.87;;;;;;;;;;5114502;28;20514;-73
2021/06/04 11:33:03;;;;;;;25.90;23.30;;;;;;;;;;5114873;28;20501;-73
2021/06/04 11:35:31;;;;;;;34.30;31.07;;;;;;;;;;5114102;28;20439;-73
2021/06/04 11:38:00;;;;;;;29.80;26.77;;;;;;;;;;5114347;28;20545;-72
2021/06/04 11:40:31;;;;;;;27.00;24.20;;;;;;;;;;5113731;28;20523;-73
2021/06/04 11:43:01;;;;;;;26.50;23.87;;;;;;;;;;5113756;28;20427;-73
2021/06/04 11:45:29;;;;;;;26.10;23.20;;;;;;;;;;5114472;28;20484;-73
2021/06/04 11:48:17;;;;;;;24.57;22.00;;;;;;;;;;5114056;28;20790;-73
2021/06/04 11:50:44;;;;;;;26.30;23.50;;;;;;;;;;5113877;28;20632;-73
2021/06/04 11:53:26;;;;;;;25.57;23.17;;;;;;;;;;5113496;28;20477;-73
2021/06/04 11:55:54;;;;;;;29.33;25.60;;;;;;;;;;5114202;28;20430;-73
2021/06/04 11:58:35;;;;;;;25.03;22.37;;;;;;;;;;5113840;28;20443;-74
2021/06/04 12:01:12;;;;;;;26.30;23.60;;;;;;;;;;5129236;28;20439;-73
2021/06/04 12:03:50;;;;;;;26.90;24.40;;;;;;;;;;5132440;28;20430;-74
2021/06/04 12:06:32;;;;;;;24.90;22.60;;;;;;;;;;5132269;28;20437;-72
2021/06/04 12:08:59;;;;;;;25.87;23.30;;;;;;;;;;5130871;28;20454;-75
2021/06/04 12:11:32;;;;;;;22.93;20.50;;;;;;;;;;5133981;28;21072;-72
2021/06/04 12:14:15;;;;;;;25.33;22.60;;;;;;;;;;5134538;28;20487;-72
2021/06/04 12:16:42;;;;;;;24.77;22.37;;;;;;;;;;5131899;28;20522;-73
2021/06/04 12:19:23;;;;;;;22.93;20.83;;;;;;;;;;5133869;28;20525;-73
2021/06/04 12:22:05;;;;;;;24.07;21.50;;;;;;;;;;5133343;28;20450;-73
2021/06/04 12:25:03;;;;;;;23.50;21.27;;;;;;;;;;5138426;27;20423;-73
2021/06/04 12:27:57;;;;;;;23.30;20.90;;;;;;;;;;5138244;27;20466;-74
2021/06/04 12:30:42;;;;;;;27.07;22.40;;;;;;;;;;5137716;27;20458;-74
2021/06/04 12:33:10;;;;;;;22.63;20.30;;;;;;;;;;5137659;27;20441;-74
2021/06/04 12:35:39;;;;;;;21.90;19.80;;;;;;;;;;5137591;27;20537;-74
2021/06/04 12:38:29;;;;;;;21.80;19.60;;;;;;;;;;5137619;27;20438;-74
2021/06/04 12:40:56;;;;;;;20.23;18.20;;;;;;;;;;5138026;27;20803;-73
2021/06/04 12:43:23;;;;;;;19.97;18.07;;;;;;;;;;5137986;27;20911;-74
2021/06/04 12:45:58;;;;;;;20.50;18.40;;;;;;;;;;5137480;27;20437;-74
2021/06/04 12:48:28;;;;;;;17.70;15.83;;;;;;;;;;5137407;27;20433;-74
2021/06/04 12:51:06;;;;;;;17.63;15.97;;;;;;;;;;5137554;27;20490;-74
2021/06/04 12:53:34;;;;;;;15.83;14.30;;;;;;;;;;5137308;27;20554;-73
2021/06/04 12:56:09;;;;;;;15.30;13.90;;;;;;;;;;5137920;27;20469;-74
2021/06/04 12:58:38;;;;;;;14.97;13.50;;;;;;;;;;5137614;27;20481;-74
2021/06/04 13:01:12;;;;;;;17.77;15.87;;;;;;;;;;5138090;27;20414;-72
2021/06/04 13:03:43;;;;;;;19.93;14.50;;;;;;;;;;5137702;27;20389;-74
2021/06/04 13:06:23;;;;;;;15.67;14.17;;;;;;;;;;5137773;27;20443;-74
2021/06/04 13:08:50;;;;;;;15.60;14.00;;;;;;;;;;5137582;27;20478;-74
2021/06/04 13:11:35;;;;;;;14.37;12.97;;;;;;;;;;5137085;27;20486;-76
2021/06/04 13:14:16;;;;;;;16.20;14.60;;;;;;;;;;5137135;27;20530;-75
2021/06/04 13:16:43;;;;;;;13.67;12.47;;;;;;;;;;5137123;27;20391;-76
2021/06/04 13:19:12;;;;;;;14.07;12.67;;;;;;;;;;5137133;27;20901;-74
2021/06/04 13:21:39;;;;;;;14.87;13.40;;;;;;;;;;5137553;27;20438;-75
2021/06/04 13:24:12;;;;;;;13.07;11.87;;;;;;;;;;5137081;27;20445;-75
2021/06/04 13:26:40;;;;;;;13.20;11.90;;;;;;;;;;5137145;27;20842;-74
2021/06/04 13:29:07;;;;;;;14.00;12.60;;;;;;;;;;5136673;27;20400;-76
2021/06/04 13:31:36;;;;;;;11.37;10.30;;;;;;;;;;5136820;27;20492;-75
2021/06/04 13:34:05;;;;;;;15.37;10.63;;;;;;;;;;5136400;27;20467;-75
2021/06/04 13:36:33;;;;;;;11.40;10.37;;;;;;;;;;5136137;27;20441;-75
2021/06/04 13:39:00;;;;;;;10.10;9.07;;;;;;;;;;5136412;27;20505;-76
2021/06/04 13:41:29;;;;;;;9.50;8.60;;;;;;;;;;5136763;27;20434;-76
2021/06/04 13:44:02;;;;;;;12.00;10.80;;;;;;;;;;5137401;27;20475;-74
2021/06/04 13:46:34;;;;;;;10.00;9.00;;;;;;;;;;5136801;27;20475;-74
2021/06/04 13:49:02;;;;;;;10.17;9.17;;;;;;;;;;5136754;27;20431;-75
2021/06/04 13:51:31;;;;;;;12.20;9.50;;;;;;;;;;5136022;27;20471;-74
2021/06/04 13:54:00;;;;;;;10.10;9.20;;;;;;;;;;5135929;27;20473;-75
2021/06/04 13:56:34;;;;;;;9.37;8.47;;;;;;;;;;5136224;27;20749;-74
2021/06/04 13:59:14;;;;;;;12.23;9.60;;;;;;;;;;5136744;27;20460;-74
2021/06/04 14:01:48;;;;;;;10.57;9.63;;;;;;;;;;5136174;27;20443;-74
2021/06/04 14:04:18;;;;;;;12.17;9.90;;;;;;;;;;5135666;27;20455;-74
2021/06/04 14:06:51;;;;;;;10.80;9.80;;;;;;;;;;5136321;27;20816;-74
2021/06/04 14:09:27;;;;;;;11.63;10.67;;;;;;;;;;5136235;27;20434;-74
2021/06/04 14:11:55;;;;;;;13.37;11.97;;;;;;;;;;5136011;27;20473;-74
2021/06/04 14:14:23;;;;;;;11.67;10.47;;;;;;;;;;5136132;27;20941;-74
2021/06/04 14:16:50;;;;;;;12.30;11.17;;;;;;;;;;5135558;27;20496;-74
2021/06/04 14:19:25;;;;;;;14.57;13.07;;;;;;;;;;5135930;27;20459;-73
2021/06/04 14:21:52;;;;;;;14.43;13.00;;;;;;;;;;5135976;27;20422;-74
2021/06/04 14:24:49;;;;;;;12.07;10.87;;;;;;;;;;5135774;27;20435;-73
2021/06/04 14:27:34;;;;;;;11.00;10.10;;;;;;;;;;5135926;27;20461;-73
2021/06/04 14:30:02;;;;;;;11.73;10.53;;;;;;;;;;5135423;27;20520;-74
2021/06/04 14:32:31;;;;;;;11.30;10.30;;;;;;;;;;5135519;27;20476;-73
2021/06/04 14:35:07;;;;;;;11.77;10.73;;;;;;;;;;5135563;27;20527;-74